Forside
METAR-TAF:

METAR-TAF

Lufthavne :

Cape Peel West, Nunavut, Canada

Breddekreds: 69-02N, længdekreds: 107-49W, højde: 165 m

Aktuelle vejr

Denne rapport blev lavet for 29 minutter siden, kl. 01:00 UTC
Vind 16 kt fra nordnordvest
Temperatur -29°C
Fugtighed 68%
Tryk 1025 hPa
Overskyet i en højde af 300 ft

METAR: CWPX 240100Z AUTO 33016KT ////SM //// OVC003 M29/M33 A3026

Tid: 18:29 (01:29 UTC)


TAF: fraværende

Vejrobservationer og prognoser fra mere end 4000 lufthavne (METAR og TAF).

De gule og røde prikker repræsenterer de meteorologiske stationer.

Flyt musen over at se navnet på stationen.

Så klik over at se vejr observationer og prognoser.

At skifte det kort: Klik på de grønne knapper med et sort kors for at zoome ind; på den grønne knap med en bindestreg for at zoome ud; eller på de grønne pile for tilstødende kort.


METAR-TAF: